createdAt,value
2018-09-06T00:00:15.701Z,10.30
2018-09-06T00:02:50.281Z,11.13
2018-09-06T00:05:24.885Z,11.20
2018-09-06T00:07:59.474Z,11.43
2018-09-06T00:10:33.948Z,11.03
2018-09-06T00:13:08.512Z,11.47
2018-09-06T00:15:43.294Z,11.37
2018-09-06T00:18:17.820Z,11.73
2018-09-06T00:20:52.151Z,11.70
2018-09-06T00:23:26.647Z,11.37
2018-09-06T00:26:01.786Z,11.77
2018-09-06T00:28:36.373Z,11.10
2018-09-06T00:31:17.689Z,12.58
2018-09-06T00:33:52.333Z,14.07
2018-09-06T00:36:26.681Z,12.40
2018-09-06T00:39:01.382Z,11.80
2018-09-06T00:41:35.805Z,12.17
2018-09-06T00:44:10.212Z,12.50
2018-09-06T00:46:44.578Z,12.43
2018-09-06T00:49:19.237Z,12.67
2018-09-06T00:51:53.624Z,12.90
2018-09-06T00:54:28.316Z,12.83
2018-09-06T00:57:02.960Z,14.37
2018-09-06T00:59:37.632Z,13.93
2018-09-06T01:02:12.210Z,12.40
2018-09-06T01:04:46.668Z,12.77
2018-09-06T01:07:21.294Z,12.87
2018-09-06T01:09:55.704Z,13.77
2018-09-06T01:12:30.277Z,13.03
2018-09-06T01:15:04.881Z,12.70
2018-09-06T01:17:39.345Z,13.20
2018-09-06T01:20:13.639Z,13.87
2018-09-06T01:22:48.923Z,12.83
2018-09-06T01:25:23.309Z,13.37
2018-09-06T01:27:57.827Z,12.90
2018-09-06T01:30:32.224Z,12.73
2018-09-06T01:33:06.895Z,15.80
2018-09-06T01:35:49.015Z,13.73
2018-09-06T01:38:23.532Z,13.20
2018-09-06T01:40:58.167Z,14.10
2018-09-06T01:43:32.548Z,14.40
2018-09-06T01:46:07.195Z,14.30
2018-09-06T01:48:42.142Z,14.57
2018-09-06T01:51:16.568Z,15.10
2018-09-06T01:53:50.976Z,13.97
2018-09-06T01:56:25.987Z,14.47
2018-09-06T01:59:00.668Z,15.13
2018-09-06T02:01:35.126Z,14.40
2018-09-06T02:04:10.244Z,14.47
2018-09-06T02:06:44.687Z,14.70
2018-09-06T02:09:19.288Z,14.73
2018-09-06T02:14:34.374Z,14.07
2018-09-06T02:17:08.841Z,14.53
2018-09-06T02:19:43.387Z,14.77
2018-09-06T02:22:17.773Z,15.32
2018-09-06T02:24:52.245Z,14.97
2018-09-06T02:27:26.882Z,14.27
2018-09-06T02:30:02.626Z,16.03
2018-09-06T02:32:37.283Z,15.40
2018-09-06T02:35:11.806Z,15.27
2018-09-06T02:37:46.198Z,14.58
2018-09-06T02:40:26.099Z,17.37
2018-09-06T02:43:00.693Z,15.23
2018-09-06T02:45:35.153Z,15.50
2018-09-06T02:48:09.885Z,15.10
2018-09-06T02:50:49.801Z,14.73
2018-09-06T02:53:24.283Z,15.07
2018-09-06T02:55:58.977Z,15.47
2018-09-06T02:58:33.632Z,15.37
2018-09-06T03:01:08.398Z,15.27
2018-09-06T03:03:42.842Z,15.77
2018-09-06T03:06:17.489Z,16.30
2018-09-06T03:08:52.098Z,15.88
2018-09-06T03:11:30.947Z,15.60
2018-09-06T03:14:05.660Z,16.13
2018-09-06T03:16:40.116Z,15.57
2018-09-06T03:19:14.881Z,15.97
2018-09-06T03:21:49.305Z,15.87
2018-09-06T03:24:23.885Z,15.93
2018-09-06T03:26:58.425Z,15.87
2018-09-06T03:29:32.778Z,16.10
2018-09-06T03:32:09.095Z,15.17
2018-09-06T03:34:43.783Z,15.80
2018-09-06T03:37:18.501Z,15.60
2018-09-06T03:39:53.107Z,18.10
2018-09-06T03:42:28.091Z,17.23
2018-09-06T03:45:04.513Z,16.87
2018-09-06T03:47:39.057Z,17.20
2018-09-06T03:50:13.871Z,16.37
2018-09-06T03:52:48.363Z,17.33
2018-09-06T03:55:22.771Z,18.33
2018-09-06T03:57:57.435Z,17.83
2018-09-06T04:00:34.758Z,17.00
2018-09-06T04:03:09.712Z,18.07
2018-09-06T04:05:45.941Z,16.93
2018-09-06T04:08:20.525Z,17.67
2018-09-06T04:10:57.107Z,18.33
2018-09-06T04:13:33.947Z,18.13
2018-09-06T04:16:09.266Z,18.37
2018-09-06T04:18:43.726Z,19.20
2018-09-06T04:21:18.157Z,19.47
2018-09-06T04:23:52.436Z,17.53
2018-09-06T04:26:27.045Z,18.37
2018-09-06T04:29:01.721Z,18.20
2018-09-06T04:31:36.459Z,17.93
2018-09-06T04:34:11.055Z,18.30
2018-09-06T04:36:45.667Z,19.23
2018-09-06T04:39:20.199Z,19.23
2018-09-06T04:41:54.700Z,19.07
2018-09-06T04:44:29.402Z,19.90
2018-09-06T04:47:04.121Z,19.50
2018-09-06T04:49:40.420Z,20.40
2018-09-06T04:52:14.776Z,20.67
2018-09-06T04:54:49.501Z,19.50
2018-09-06T04:57:24.135Z,18.67
2018-09-06T04:59:59.494Z,19.37
2018-09-06T05:02:34.038Z,19.23
2018-09-06T05:05:08.484Z,19.90
2018-09-06T05:07:43.260Z,19.90
2018-09-06T05:10:17.730Z,19.33
2018-09-06T05:12:52.520Z,21.27
2018-09-06T05:15:26.971Z,19.57
2018-09-06T05:18:01.822Z,19.40
2018-09-06T05:20:36.968Z,22.20
2018-09-06T05:23:11.414Z,20.73
2018-09-06T05:25:45.935Z,20.93
2018-09-06T05:28:20.690Z,20.33
2018-09-06T05:30:55.841Z,20.30
2018-09-06T05:33:30.401Z,19.50
2018-09-06T05:36:05.116Z,20.07
2018-09-06T05:38:45.318Z,20.10
2018-09-06T05:41:19.717Z,19.63
2018-09-06T05:43:54.757Z,19.20
2018-09-06T05:46:29.233Z,21.33
2018-09-06T05:49:04.479Z,20.45
2018-09-06T05:51:39.120Z,20.57
2018-09-06T05:54:13.881Z,19.15
2018-09-06T05:56:48.624Z,24.07
2018-09-06T05:59:23.171Z,19.33
2018-09-06T06:01:57.649Z,20.03
2018-09-06T06:04:32.509Z,23.22
2018-09-06T06:07:07.287Z,19.27
2018-09-06T06:09:42.100Z,19.33
2018-09-06T06:12:16.761Z,18.45
2018-09-06T06:14:51.456Z,21.77
2018-09-06T06:17:26.015Z,21.48
2018-09-06T06:20:00.642Z,19.90
2018-09-06T06:22:35.288Z,20.55
2018-09-06T06:25:09.960Z,21.45
2018-09-06T06:27:44.562Z,23.40
2018-09-06T06:30:19.957Z,20.62
2018-09-06T06:32:54.589Z,22.67
2018-09-06T06:35:28.987Z,22.60
2018-09-06T06:37:57.935Z,21.13
2018-09-06T06:40:27.007Z,22.63
2018-09-06T06:42:56.103Z,23.90
2018-09-06T06:45:25.329Z,22.27
2018-09-06T06:47:54.366Z,21.63
2018-09-06T06:50:24.114Z,19.92
2018-09-06T06:52:53.306Z,18.57
2018-09-06T06:55:22.360Z,19.35
2018-09-06T06:57:51.347Z,21.30
2018-09-06T07:00:21.805Z,22.80
2018-09-06T07:02:51.503Z,19.15
2018-09-06T07:05:20.490Z,19.65
2018-09-06T07:07:50.707Z,17.98
2018-09-06T07:10:19.795Z,18.10
2018-09-06T07:12:48.757Z,17.70
2018-09-06T07:15:17.797Z,20.10
2018-09-06T07:17:46.863Z,18.37
2018-09-06T07:20:15.879Z,18.77
2018-09-06T07:22:45.029Z,17.85
2018-09-06T07:25:14.084Z,19.48
2018-09-06T07:27:43.234Z,18.27
2018-09-06T07:30:12.533Z,18.65
2018-09-06T07:32:41.629Z,18.32
2018-09-06T07:35:10.753Z,19.27
2018-09-06T07:37:39.986Z,19.23
2018-09-06T07:40:09.082Z,17.25
2018-09-06T07:42:38.328Z,19.27
2018-09-06T07:45:07.742Z,18.00
2018-09-06T07:47:36.789Z,18.12
2018-09-06T07:50:06.059Z,18.12
2018-09-06T07:52:35.115Z,18.80
2018-09-06T07:55:04.395Z,17.90
2018-09-06T07:57:33.495Z,17.50
2018-09-06T08:00:02.703Z,18.80
2018-09-06T08:02:31.714Z,18.10
2018-09-06T08:05:00.789Z,17.32
2018-09-06T08:07:31.870Z,17.17
2018-09-06T08:10:00.929Z,16.20
2018-09-06T08:12:30.107Z,17.60
2018-09-06T08:15:07.759Z,17.60
2018-09-06T08:17:36.799Z,17.48
2018-09-06T08:20:06.411Z,16.97
2018-09-06T08:22:35.606Z,16.07
2018-09-06T08:25:04.703Z,14.65
2018-09-06T08:27:33.832Z,15.55
2018-09-06T08:30:03.283Z,14.98
2018-09-06T08:32:32.460Z,16.95
2018-09-06T08:35:01.596Z,14.95
2018-09-06T08:37:30.662Z,14.93
2018-09-06T08:39:59.817Z,14.28
2018-09-06T08:42:28.852Z,14.23
2018-09-06T08:44:58.218Z,14.87
2018-09-06T08:47:27.348Z,12.60
2018-09-06T08:49:56.631Z,13.03
2018-09-06T08:52:25.827Z,11.45
2018-09-06T08:54:54.766Z,13.72
2018-09-06T08:57:24.201Z,12.63
2018-09-06T08:59:53.200Z,14.20
2018-09-06T09:02:22.603Z,13.62
2018-09-06T09:04:51.723Z,14.73
2018-09-06T09:07:21.042Z,12.80
2018-09-06T09:09:50.203Z,12.40
2018-09-06T09:12:19.369Z,12.35
2018-09-06T09:14:48.589Z,12.90
2018-09-06T09:17:17.599Z,11.55
2018-09-06T09:19:46.768Z,10.43
2018-09-06T09:22:16.006Z,11.18
2018-09-06T09:24:45.018Z,10.55
2018-09-06T09:27:14.052Z,10.98
2018-09-06T09:29:43.926Z,12.00
2018-09-06T09:32:13.332Z,12.45
2018-09-06T09:34:42.858Z,11.25
2018-09-06T09:37:12.194Z,12.75
2018-09-06T09:39:43.314Z,10.75
2018-09-06T09:42:13.494Z,11.55
2018-09-06T09:44:42.732Z,13.08
2018-09-06T09:49:40.340Z,10.88
2018-09-06T09:52:09.399Z,11.65
2018-09-06T09:54:38.527Z,11.80
2018-09-06T09:57:07.745Z,12.25
2018-09-06T09:59:36.785Z,11.22
2018-09-06T10:02:11.265Z,10.15
2018-09-06T10:04:45.627Z,12.18
2018-09-06T10:08:19.682Z,9.78
2018-09-06T10:10:48.993Z,10.35
2018-09-06T10:13:18.246Z,9.85
2018-09-06T10:15:47.333Z,11.18
2018-09-06T10:18:17.868Z,10.20
2018-09-06T10:20:46.803Z,9.75
2018-09-06T10:23:15.915Z,9.20
2018-09-06T10:25:44.959Z,9.50
2018-09-06T10:28:13.959Z,10.32
2018-09-06T10:30:42.931Z,8.85
2018-09-06T10:33:12.093Z,9.63
2018-09-06T10:35:41.140Z,10.00
2018-09-06T10:38:10.195Z,10.23
2018-09-06T10:40:39.240Z,9.93
2018-09-06T10:43:08.229Z,9.18
2018-09-06T10:45:37.990Z,9.13
2018-09-06T10:48:07.083Z,10.60
2018-09-06T10:50:36.038Z,9.95
2018-09-06T10:53:04.998Z,9.73
2018-09-06T10:55:34.045Z,9.65
2018-09-06T10:58:03.063Z,10.63
2018-09-06T11:00:32.180Z,12.25
2018-09-06T11:03:01.254Z,10.28
2018-09-06T11:05:30.305Z,11.38
2018-09-06T11:07:59.318Z,10.65
2018-09-06T11:10:28.428Z,10.40
2018-09-06T11:12:57.461Z,11.10
2018-09-06T11:15:26.483Z,9.53
2018-09-06T11:17:55.547Z,9.85
2018-09-06T11:20:24.617Z,10.98
2018-09-06T11:22:53.629Z,12.70
2018-09-06T11:25:22.837Z,10.78
2018-09-06T11:27:52.024Z,11.22
2018-09-06T11:30:21.483Z,10.88
2018-09-06T11:32:50.476Z,13.25
2018-09-06T11:35:19.675Z,12.23
2018-09-06T11:37:49.160Z,11.70
2018-09-06T11:40:18.269Z,14.07
2018-09-06T11:42:47.227Z,15.00
2018-09-06T11:45:16.811Z,10.50
2018-09-06T11:47:45.958Z,11.78
2018-09-06T11:50:15.090Z,12.78
2018-09-06T11:52:44.247Z,12.85
2018-09-06T11:55:13.466Z,10.90
2018-09-06T11:57:42.567Z,10.95
2018-09-06T12:00:11.886Z,11.73
2018-09-06T12:02:40.914Z,11.45
2018-09-06T12:05:10.060Z,12.30
2018-09-06T12:07:39.083Z,10.70
2018-09-06T12:10:08.098Z,10.95
2018-09-06T12:12:37.069Z,13.28
2018-09-06T12:15:06.131Z,11.50
2018-09-06T12:17:35.226Z,12.65
2018-09-06T12:20:04.275Z,11.53
2018-09-06T12:22:33.459Z,13.15
2018-09-06T12:25:02.516Z,9.88
2018-09-06T12:27:31.515Z,10.75
2018-09-06T12:30:00.701Z,9.95
2018-09-06T12:32:29.865Z,11.57
2018-09-06T12:34:58.906Z,11.30
2018-09-06T12:37:27.975Z,8.95
2018-09-06T12:39:57.139Z,9.73
2018-09-06T12:42:26.351Z,10.88
2018-09-06T12:44:55.378Z,9.53
2018-09-06T12:47:24.439Z,10.48
2018-09-06T12:49:54.675Z,9.15
2018-09-06T12:52:23.689Z,14.23
2018-09-06T12:54:52.689Z,10.82
2018-09-06T12:57:21.930Z,9.98
2018-09-06T12:59:50.915Z,13.10
2018-09-06T13:02:20.092Z,10.72
2018-09-06T13:04:49.336Z,10.40
2018-09-06T13:07:18.356Z,10.20
2018-09-06T13:09:47.368Z,12.28
2018-09-06T13:12:16.581Z,10.28
2018-09-06T13:14:45.632Z,9.28
2018-09-06T13:17:14.643Z,9.48
2018-09-06T13:19:43.748Z,12.05
2018-09-06T13:22:12.706Z,10.25
2018-09-06T13:24:41.722Z,11.22
2018-09-06T13:27:10.988Z,12.03
2018-09-06T13:29:41.232Z,10.63
2018-09-06T13:32:10.452Z,10.45
2018-09-06T13:34:39.550Z,11.48
2018-09-06T13:37:08.621Z,10.25
2018-09-06T13:39:37.640Z,9.40
2018-09-06T13:42:06.831Z,9.28
2018-09-06T13:44:35.846Z,10.38
2018-09-06T13:47:04.888Z,8.83
2018-09-06T13:49:33.961Z,9.15
2018-09-06T13:52:03.036Z,11.83
2018-09-06T13:54:32.031Z,9.05
2018-09-06T13:57:01.076Z,8.88
2018-09-06T13:59:30.184Z,9.25
2018-09-06T14:01:59.546Z,9.05
2018-09-06T14:04:28.683Z,9.33
2018-09-06T14:06:57.713Z,11.80
2018-09-06T14:09:27.018Z,9.13
2018-09-06T14:11:56.067Z,9.98
2018-09-06T14:14:25.280Z,9.10
2018-09-06T14:16:54.359Z,12.13
2018-09-06T14:19:23.393Z,8.85
2018-09-06T14:21:53.413Z,9.30
2018-09-06T14:24:22.583Z,10.58
2018-09-06T14:26:51.640Z,9.85
2018-09-06T14:29:20.662Z,13.03
2018-09-06T14:31:49.648Z,9.13
2018-09-06T14:34:18.748Z,9.73
2018-09-06T14:36:49.271Z,10.43
2018-09-06T14:39:19.718Z,9.43
2018-09-06T14:41:48.824Z,16.25
2018-09-06T14:44:18.015Z,11.12
2018-09-06T14:46:49.452Z,12.00
2018-09-06T14:49:18.590Z,9.65
2018-09-06T14:51:48.176Z,9.55
2018-09-06T14:54:17.276Z,9.15
2018-09-06T14:56:46.270Z,11.57
2018-09-06T14:59:15.509Z,10.25
2018-09-06T15:01:45.971Z,11.05
2018-09-06T15:04:15.712Z,13.53
2018-09-06T15:06:44.776Z,10.15
2018-09-06T15:09:14.967Z,11.73
2018-09-06T15:11:44.091Z,9.75
2018-09-06T15:14:13.147Z,10.00
2018-09-06T15:16:42.359Z,14.33
2018-09-06T15:19:11.561Z,9.70
2018-09-06T15:21:40.745Z,8.95
2018-09-06T15:24:09.892Z,9.70
2018-09-06T15:26:38.967Z,9.78
2018-09-06T15:29:07.961Z,10.05
2018-09-06T15:31:37.053Z,9.70
2018-09-06T15:34:06.605Z,10.80
2018-09-06T15:36:35.636Z,10.55
2018-09-06T15:39:06.807Z,9.63
2018-09-06T15:41:35.912Z,10.48
2018-09-06T15:44:05.020Z,10.05
2018-09-06T15:46:34.044Z,12.55
2018-09-06T15:49:03.088Z,10.82
2018-09-06T15:51:32.268Z,13.08
2018-09-06T15:54:01.294Z,10.53
2018-09-06T15:56:30.473Z,13.65
2018-09-06T15:58:59.550Z,10.20
2018-09-06T16:01:29.796Z,10.23
2018-09-06T16:04:00.521Z,11.93
2018-09-06T16:06:29.579Z,10.40
2018-09-06T16:08:59.086Z,13.50
2018-09-06T16:11:28.283Z,12.47
2018-09-06T16:13:57.553Z,10.48
2018-09-06T16:16:26.501Z,13.10
2018-09-06T16:18:55.589Z,10.40
2018-09-06T16:21:24.711Z,11.05
2018-09-06T16:23:53.967Z,11.68
2018-09-06T16:26:23.142Z,10.68
2018-09-06T16:28:52.198Z,10.28
2018-09-06T16:31:21.495Z,10.25
2018-09-06T16:33:54.125Z,10.98
2018-09-06T16:36:24.968Z,10.85
2018-09-06T16:38:54.234Z,10.93
2018-09-06T16:41:23.510Z,11.08
2018-09-06T16:43:52.655Z,11.35
2018-09-06T16:46:21.813Z,11.25
2018-09-06T16:48:50.848Z,13.70
2018-09-06T16:51:19.904Z,10.75
2018-09-06T16:53:49.024Z,13.48
2018-09-06T16:56:18.071Z,12.88
2018-09-06T16:58:47.057Z,10.90
2018-09-06T17:01:16.106Z,11.53
2018-09-06T17:03:45.113Z,11.20
2018-09-06T17:06:14.101Z,10.63
2018-09-06T17:08:43.137Z,11.40
2018-09-06T17:11:12.319Z,11.50
2018-09-06T17:13:41.761Z,10.60
2018-09-06T17:16:10.833Z,10.25
2018-09-06T17:18:39.976Z,10.48
2018-09-06T17:21:09.081Z,11.93
2018-09-06T17:23:38.061Z,10.53
2018-09-06T17:26:07.458Z,10.82
2018-09-06T17:28:36.467Z,13.28
2018-09-06T17:31:06.669Z,13.05
2018-09-06T17:33:35.749Z,9.73
2018-09-06T17:36:04.737Z,12.90
2018-09-06T17:38:33.832Z,11.03
2018-09-06T17:41:02.868Z,10.53
2018-09-06T17:43:31.838Z,10.32
2018-09-06T17:46:01.031Z,12.50
2018-09-06T17:48:29.985Z,11.40
2018-09-06T17:50:59.093Z,9.90
2018-09-06T17:53:28.244Z,11.90
2018-09-06T17:55:57.507Z,11.33
2018-09-06T17:58:26.611Z,10.08
2018-09-06T18:01:12.612Z,11.80
2018-09-06T18:03:41.964Z,9.85
2018-09-06T18:06:11.153Z,11.53
2018-09-06T18:08:40.192Z,10.80
2018-09-06T18:11:09.278Z,10.90
2018-09-06T18:13:38.552Z,12.90
2018-09-06T18:16:08.044Z,12.45
2018-09-06T18:18:37.208Z,12.40
2018-09-06T18:21:06.212Z,11.03
2018-09-06T18:23:35.336Z,12.63
2018-09-06T18:26:04.531Z,11.70
2018-09-06T18:28:33.763Z,12.15
2018-09-06T18:31:02.978Z,12.53
2018-09-06T18:33:35.317Z,11.88
2018-09-06T18:36:04.479Z,11.18
2018-09-06T18:38:33.603Z,11.65
2018-09-06T18:41:03.001Z,11.48
2018-09-06T18:43:32.213Z,12.13
2018-09-06T18:46:01.306Z,11.45
2018-09-06T18:48:30.325Z,10.72
2018-09-06T18:50:59.809Z,11.80
2018-09-06T18:53:29.002Z,11.93
2018-09-06T18:55:57.986Z,11.33
2018-09-06T18:58:26.985Z,13.80
2018-09-06T19:00:56.000Z,11.30
2018-09-06T19:03:25.056Z,12.03
2018-09-06T19:05:54.191Z,14.13
2018-09-06T19:08:23.242Z,13.72
2018-09-06T19:10:52.424Z,11.63
2018-09-06T19:13:21.470Z,13.18
2018-09-06T19:15:50.598Z,13.70
2018-09-06T19:18:19.703Z,12.55
2018-09-06T19:20:48.828Z,14.68
2018-09-06T19:23:17.861Z,12.98
2018-09-06T19:25:47.197Z,12.58
2018-09-06T19:28:16.285Z,11.33
2018-09-06T19:30:45.406Z,11.93
2018-09-06T19:33:14.933Z,12.98
2018-09-06T19:35:44.119Z,11.20
2018-09-06T19:38:13.207Z,12.88
2018-09-06T19:40:42.216Z,12.35
2018-09-06T19:43:11.246Z,11.30
2018-09-06T19:45:40.277Z,11.78
2018-09-06T19:48:09.458Z,12.47
2018-09-06T19:50:38.771Z,11.40
2018-09-06T19:53:07.830Z,11.68
2018-09-06T19:55:36.957Z,11.10
2018-09-06T19:58:06.130Z,13.15
2018-09-06T20:00:35.267Z,11.65
2018-09-06T20:03:04.589Z,13.70
2018-09-06T20:05:33.593Z,14.03
2018-09-06T20:08:02.877Z,11.45
2018-09-06T20:10:32.225Z,14.07
2018-09-06T20:13:01.425Z,11.38
2018-09-06T20:15:30.681Z,11.90
2018-09-06T20:18:00.918Z,11.18
2018-09-06T20:20:30.012Z,11.25
2018-09-06T20:22:59.202Z,11.85
2018-09-06T20:25:28.358Z,11.05
2018-09-06T20:27:57.510Z,11.97
2018-09-06T20:30:26.557Z,11.57
2018-09-06T20:32:55.676Z,11.18
2018-09-06T20:35:24.932Z,11.12
2018-09-06T20:37:54.088Z,11.43
2018-09-06T20:40:23.253Z,11.73
2018-09-06T20:42:52.316Z,12.30
2018-09-06T20:45:21.639Z,11.63
2018-09-06T20:47:50.667Z,12.90
2018-09-06T20:50:19.889Z,12.05
2018-09-06T20:52:48.931Z,11.33
2018-09-06T20:55:18.007Z,13.60
2018-09-06T20:57:47.120Z,11.12
2018-09-06T21:00:16.155Z,12.15
2018-09-06T21:02:45.368Z,11.08
2018-09-06T21:05:14.431Z,11.90
2018-09-06T21:07:43.449Z,12.68
2018-09-06T21:10:12.733Z,11.90
2018-09-06T21:12:41.760Z,12.83
2018-09-06T21:15:10.799Z,12.13
2018-09-06T21:17:46.805Z,11.73
2018-09-06T21:20:16.307Z,11.88
2018-09-06T21:22:45.503Z,12.50
2018-09-06T21:25:15.002Z,12.93
2018-09-06T21:27:44.104Z,12.50
2018-09-06T21:30:13.193Z,12.45
2018-09-06T21:32:42.322Z,12.78
2018-09-06T21:35:11.546Z,11.48
2018-09-06T21:37:40.692Z,12.73
2018-09-06T21:40:09.970Z,12.53
2018-09-06T21:42:38.964Z,13.05
2018-09-06T21:45:08.226Z,12.68
2018-09-06T21:47:37.454Z,13.03
2018-09-06T21:50:07.648Z,13.70
2018-09-06T21:52:36.816Z,12.75
2018-09-06T21:55:06.464Z,13.13
2018-09-06T21:57:36.099Z,12.63
2018-09-06T22:00:07.333Z,12.80
2018-09-06T22:03:42.649Z,13.37
2018-09-06T22:06:12.356Z,13.38
2018-09-06T22:08:41.502Z,13.45
2018-09-06T22:11:10.752Z,12.85
2018-09-06T22:13:40.214Z,13.97
2018-09-06T22:16:09.187Z,12.97
2018-09-06T22:18:38.291Z,14.28
2018-09-06T22:21:07.534Z,14.68
2018-09-06T22:23:36.616Z,14.13
2018-09-06T22:26:06.787Z,13.97
2018-09-06T22:28:35.857Z,14.63
2018-09-06T22:31:05.471Z,13.68
2018-09-06T22:33:34.526Z,16.93
2018-09-06T22:36:03.761Z,14.10
2018-09-06T22:38:33.181Z,14.25
2018-09-06T22:41:02.974Z,14.47
2018-09-06T22:43:32.295Z,15.45
2018-09-06T22:46:01.904Z,14.67
2018-09-06T22:48:31.182Z,14.70
2018-09-06T22:51:00.598Z,13.70
2018-09-06T22:53:29.736Z,15.43
2018-09-06T22:55:58.778Z,14.93
2018-09-06T22:58:29.130Z,15.13
2018-09-06T23:00:58.315Z,17.33
2018-09-06T23:03:32.967Z,14.77
2018-09-06T23:06:02.136Z,15.50
2018-09-06T23:08:31.724Z,15.45
2018-09-06T23:11:00.811Z,15.43
2018-09-06T23:13:29.920Z,14.63
2018-09-06T23:15:59.167Z,15.07
2018-09-06T23:18:28.247Z,15.40
2018-09-06T23:20:57.288Z,15.40
2018-09-06T23:23:26.401Z,16.20
2018-09-06T23:25:55.617Z,15.60
2018-09-06T23:28:24.739Z,15.87
2018-09-06T23:30:53.855Z,15.90
2018-09-06T23:33:22.868Z,15.40
2018-09-06T23:35:51.973Z,15.50
2018-09-06T23:38:21.139Z,17.27
2018-09-06T23:40:56.404Z,15.20
2018-09-06T23:43:26.547Z,15.57
2018-09-06T23:45:56.912Z,15.50
2018-09-06T23:48:28.288Z,16.67
2018-09-06T23:50:57.983Z,16.50
2018-09-06T23:53:27.788Z,16.50
2018-09-06T23:55:56.917Z,17.27
2018-09-06T23:58:26.116Z,15.70
